Time;durP1;ratioP1;P1;durP2;ratioP2;P2;SDS_P1;SDS_P2;PMS_P1;PMS_P2;Temp;Humidity;BMP_temperature;BMP_pressure;BME280_temperature;BME280_humidity;BME280_pressure;Samples;Min_cycle;Max_cycle;Signal;HPM_P1;HPM_P2
2023/05/16 00:01:20;;;;;;;17.67;10.23;;;;;;;14.16;96.39;94540.22;5021486;28;20639;-80
2023/05/16 00:03:46;;;;;;;16.97;11.87;;;;;;;14.12;96.48;94539.06;5021086;28;20446;-80
2023/05/16 00:06:11;;;;;;;22.63;14.17;;;;;;;13.97;97.14;94537.78;5021817;28;20446;-80
2023/05/16 00:08:37;;;;;;;21.20;14.37;;;;;;;13.75;97.88;94512.28;5022857;28;20428;-80
2023/05/16 00:11:02;;;;;;;20.60;12.45;;;;;;;13.89;97.95;94535.53;5023615;28;20171;-80
2023/05/16 00:13:29;;;;;;;17.30;10.60;;;;;;;13.92;97.61;94528.97;5025111;28;20247;-80
2023/05/16 00:15:55;;;;;;;15.85;10.90;;;;;;;13.87;97.57;94505.84;5022470;28;20160;-80
2023/05/16 00:18:21;;;;;;;19.55;13.35;;;;;;;13.87;97.86;94526.22;5032134;28;20458;-80
2023/05/16 00:20:47;;;;;;;19.88;12.35;;;;;;;13.84;98.06;94521.41;5023316;28;20254;-80
2023/05/16 00:23:13;;;;;;;15.17;10.90;;;;;;;13.88;97.97;94533.13;5023512;28;20345;-80
2023/05/16 00:25:39;;;;;;;17.77;11.70;;;;;;;13.93;97.71;94531.34;5031107;28;20801;-80
2023/05/16 00:28:05;;;;;;;20.53;10.83;;;;;;;13.95;97.74;94523.19;5024970;28;20247;-80
2023/05/16 00:30:31;;;;;;;17.30;11.00;;;;;;;13.85;97.56;94494.69;5026154;28;20157;-80
2023/05/16 00:32:56;;;;;;;17.70;10.90;;;;;;;13.90;97.71;94508.03;5012721;28;20175;-80
2023/05/16 00:35:22;;;;;;;15.77;10.43;;;;;;;13.94;97.72;94506.50;5012870;28;20188;-80
2023/05/16 00:37:49;;;;;;;21.67;11.03;;;;;;;13.92;97.69;94487.41;5012534;28;20172;-80
2023/05/16 00:40:14;;;;;;;14.83;10.43;;;;;;;13.95;97.46;94492.22;5018576;28;20658;-80
2023/05/16 00:42:40;;;;;;;19.10;12.30;;;;;;;13.92;97.48;94483.97;5015186;28;20188;-80
2023/05/16 00:45:06;;;;;;;14.17;10.33;;;;;;;14.04;97.57;94492.63;5022679;28;20192;-80
2023/05/16 00:47:31;;;;;;;17.77;13.40;;;;;;;13.85;98.15;94478.81;5012536;28;20829;-80
2023/05/16 00:49:57;;;;;;;18.87;12.07;;;;;;;14.01;97.91;94493.09;5025588;28;20510;-80
2023/05/16 00:52:23;;;;;;;17.55;12.18;;;;;;;14.02;97.97;94478.81;5012545;28;20180;-80
2023/05/16 00:54:49;;;;;;;17.52;10.27;;;;;;;13.97;98.00;94474.28;5023080;28;20172;-80
2023/05/16 00:57:15;;;;;;;17.98;10.13;;;;;;;13.95;97.49;94463.13;5023133;28;20213;-80
2023/05/16 00:59:42;;;;;;;15.43;10.63;;;;;;;14.05;97.98;94481.00;5007515;28;20582;-80
2023/05/16 01:02:08;;;;;;;17.60;11.93;;;;;;;13.96;97.61;94455.97;5020667;28;20580;-81
2023/05/16 01:04:34;;;;;;;14.80;11.93;;;;;;;14.13;97.76;94470.00;5020414;28;20444;-80
2023/05/16 01:07:01;;;;;;;14.27;10.75;;;;;;;14.25;96.72;94464.63;5017109;28;20191;-81
2023/05/16 01:09:26;;;;;;;19.80;12.43;;;;;;;14.39;95.80;94481.00;5025088;28;20729;-80
2023/05/16 01:11:52;;;;;;;16.65;10.90;;;;;;;14.39;95.73;94473.06;5017458;28;20191;-80
2023/05/16 01:14:36;;;;;;;16.05;10.10;;;;;;;14.38;95.75;94480.16;5007143;28;20173;-80
2023/05/16 01:17:27;;;;;;;18.00;10.52;;;;;;;14.26;96.07;94455.66;5024722;28;20176;-80
2023/05/16 01:20:14;;;;;;;13.20;9.88;;;;;;;14.30;95.36;94462.03;5005735;28;20658;-80
2023/05/16 01:22:59;;;;;;;14.75;10.57;;;;;;;14.30;95.64;94457.56;5026293;28;20193;-80
2023/05/16 01:25:57;;;;;;;13.80;10.77;;;;;;;13.91;95.53;94421.50;5005997;28;20329;-80
2023/05/16 01:28:24;;;;;;;19.52;13.35;;;;;;;13.97;97.15;94444.34;4998087;28;20428;-80
2023/05/16 01:30:50;;;;;;;22.08;11.13;;;;;;;14.09;97.00;94463.63;5024390;28;20643;-80
2023/05/16 01:33:16;;;;;;;16.43;10.50;;;;;;;14.16;96.70;94455.50;5024269;28;20172;-80
2023/05/16 01:36:20;;;;;;;13.65;10.20;;;;;;;14.20;96.60;94452.09;5025945;28;20668;-80
2023/05/16 01:39:06;;;;;;;16.10;11.43;;;;;;;14.21;96.72;94447.63;5025138;28;20478;-80
2023/05/16 01:41:41;;;;;;;16.48;11.13;;;;;;;14.24;96.81;94441.84;5024014;28;20164;-80
2023/05/16 01:44:22;;;;;;;16.37;11.00;;;;;;;14.17;96.83;94420.03;5023251;28;20657;-81
2023/05/16 01:46:51;;;;;;;14.33;9.80;;;;;;;14.22;96.58;94428.84;5021788;28;20171;-80
2023/05/16 01:49:24;;;;;;;15.43;9.67;;;;;;;14.36;96.15;94437.22;5015822;28;20540;-81
2023/05/16 01:52:15;;;;;;;11.73;9.07;;;;;;;14.33;96.13;94435.09;5007859;28;20176;-80
2023/05/16 01:54:44;;;;;;;11.60;8.93;;;;;;;14.35;95.90;94433.00;5025673;28;20198;-79
2023/05/16 01:57:12;;;;;;;18.33;11.50;;;;;;;14.20;96.34;94432.78;5024007;28;20431;-79
2023/05/16 01:59:39;;;;;;;13.23;10.07;;;;;;;14.03;96.62;94408.16;5018869;28;20176;-79
2023/05/16 02:02:04;;;;;;;16.75;12.80;;;;;;;13.89;97.86;94428.88;5018320;28;20430;-80
2023/05/16 02:04:30;;;;;;;19.60;13.47;;;;;;;13.83;98.50;94421.94;5031009;28;20931;-79
2023/05/16 02:06:56;;;;;;;16.90;11.32;;;;;;;13.88;98.67;94427.28;5023833;28;20631;-79
2023/05/16 02:09:21;;;;;;;15.73;10.98;;;;;;;13.91;98.32;94434.75;5023558;28;20558;-79
2023/05/16 02:11:46;;;;;;;21.93;13.37;;;;;;;13.86;98.41;94434.66;5022957;28;20520;-80
2023/05/16 02:14:12;;;;;;;13.95;10.75;;;;;;;13.85;98.58;94417.97;5023526;28;20184;-80
2023/05/16 02:16:38;;;;;;;14.63;10.77;;;;;;;13.91;98.48;94427.63;4979963;28;20644;-80
2023/05/16 02:19:03;;;;;;;18.13;11.17;;;;;;;13.92;98.36;94423.91;5019087;28;20175;-80
2023/05/16 02:21:29;;;;;;;15.10;11.13;;;;;;;13.94;98.01;94419.16;5025752;28;20179;-80
2023/05/16 02:23:55;;;;;;;22.42;14.13;;;;;;;13.87;98.52;94421.19;5015732;28;20446;-79
2023/05/16 02:26:20;;;;;;;21.98;14.77;;;;;;;13.58;98.78;94394.00;5025353;28;20413;-79
2023/05/16 02:28:48;;;;;;;16.67;12.07;;;;;;;13.57;99.13;94392.44;5029743;28;20545;-79
2023/05/16 02:31:24;;;;;;;20.25;13.98;;;;;;;13.73;99.33;94417.28;5003697;28;20442;-79
2023/05/16 02:33:50;;;;;;;20.37;13.33;;;;;;;13.65;99.35;94412.38;5023490;28;20167;-79
2023/05/16 02:36:15;;;;;;;24.80;13.63;;;;;;;13.66;99.26;94408.69;5023517;28;20179;-79
2023/05/16 02:38:41;;;;;;;17.20;11.97;;;;;;;13.68;99.09;94417.19;5023152;28;20176;-79
2023/05/16 02:41:06;;;;;;;17.90;12.40;;;;;;;13.74;99.29;94437.41;5032008;28;21027;-79
2023/05/16 02:43:31;;;;;;;18.83;14.10;;;;;;;13.58;99.79;94432.88;5012869;28;20441;-79
2023/05/16 02:45:57;;;;;;;17.27;12.70;;;;;;;13.65;99.95;94438.03;5023058;28;20263;-79
2023/05/16 02:48:22;;;;;;;19.05;13.48;;;;;;;13.67;99.67;94428.00;5022759;28;20406;-79
2023/05/16 02:50:48;;;;;;;17.47;12.87;;;;;;;13.49;99.84;94406.03;5032121;28;20204;-79
2023/05/16 02:53:13;;;;;;;18.10;12.93;;;;;;;13.62;99.98;94426.06;5024925;28;20658;-79
2023/05/16 02:55:38;;;;;;;21.23;13.27;;;;;;;13.65;99.89;94409.75;5024813;28;20187;-79
2023/05/16 02:58:04;;;;;;;24.93;14.77;;;;;;;13.56;99.79;94414.63;5017167;28;20509;-79
2023/05/16 03:00:29;;;;;;;23.23;12.95;;;;;;;13.54;100.00;94415.91;5022625;28;20183;-79
2023/05/16 03:02:55;;;;;;;18.83;12.40;;;;;;;13.56;100.00;94422.56;5022604;28;20219;-79
2023/05/16 03:05:20;;;;;;;17.80;11.10;;;;;;;13.61;100.00;94413.91;5018151;28;20192;-79
2023/05/16 03:07:45;;;;;;;17.77;12.43;;;;;;;13.63;100.00;94411.00;5023436;28;20626;-79
2023/05/16 03:10:11;;;;;;;22.80;11.53;;;;;;;13.58;100.00;94401.13;5016260;28;20173;-79
2023/05/16 03:12:36;;;;;;;24.43;15.33;;;;;;;13.58;100.00;94417.00;5027947;28;20439;-79
2023/05/16 03:15:02;;;;;;;19.10;11.47;;;;;;;13.50;100.00;94389.13;5022339;28;20179;-79
2023/05/16 03:17:28;;;;;;;26.33;14.00;;;;;;;13.69;99.86;94412.69;5021835;28;20469;-79
2023/05/16 03:19:53;;;;;;;19.83;13.87;;;;;;;13.55;99.71;94391.06;5031264;28;20411;-79
2023/05/16 03:22:19;;;;;;;16.10;12.27;;;;;;;13.70;99.72;94415.09;5020911;28;20218;-78
2023/05/16 03:24:44;;;;;;;21.90;13.13;;;;;;;13.71;99.68;94415.91;5024228;28;20241;-78
2023/05/16 03:27:10;;;;;;;18.50;12.20;;;;;;;13.65;99.63;94398.34;5016715;28;20177;-78
2023/05/16 03:29:36;;;;;;;26.23;12.97;;;;;;;13.72;99.82;94413.03;5010688;28;20243;-79
2023/05/16 03:32:01;;;;;;;21.23;12.73;;;;;;;13.78;99.41;94411.25;5021450;28;20195;-78
2023/05/16 03:34:27;;;;;;;16.40;11.07;;;;;;;13.75;99.10;94417.03;5026676;28;20771;-78
2023/05/16 03:36:52;;;;;;;21.33;13.57;;;;;;;13.72;99.48;94407.72;5023399;28;20165;-78
2023/05/16 03:39:18;;;;;;;17.90;12.60;;;;;;;13.76;99.59;94408.84;5028348;28;20175;-78
2023/05/16 03:41:43;;;;;;;23.10;13.87;;;;;;;13.70;99.12;94403.72;5029594;28;20420;-78
2023/05/16 03:44:09;;;;;;;23.83;13.87;;;;;;;13.52;99.84;94386.25;5032551;28;20199;-78
2023/05/16 03:46:35;;;;;;;18.73;12.23;;;;;;;13.57;100.00;94389.78;5017226;28;20168;-77
2023/05/16 03:49:01;;;;;;;21.33;14.73;;;;;;;13.67;100.00;94402.34;5015919;28;20180;-77
2023/05/16 03:51:27;;;;;;;19.97;12.90;;;;;;;13.62;99.73;94394.34;5023261;28;20183;-78
2023/05/16 03:53:53;;;;;;;19.43;12.47;;;;;;;13.70;99.87;94406.34;5021348;28;20176;-78
2023/05/16 03:56:18;;;;;;;21.67;14.47;;;;;;;13.70;99.92;94403.72;5021576;28;20184;-80
2023/05/16 03:58:43;;;;;;;22.03;13.73;;;;;;;13.72;100.00;94410.38;5021882;28;20176;-76
2023/05/16 04:01:09;;;;;;;18.10;13.67;;;;;;;13.65;100.00;94398.34;5023605;28;20654;-79
2023/05/16 04:03:34;;;;;;;19.73;13.87;;;;;;;13.55;100.00;94393.69;5026824;28;20216;-80
2023/05/16 04:06:00;;;;;;;19.73;13.03;;;;;;;13.60;100.00;94401.72;5006223;28;20176;-80
2023/05/16 04:08:26;;;;;;;20.50;14.57;;;;;;;13.56;100.00;94395.31;5025677;28;20911;-79
2023/05/16 04:10:51;;;;;;;28.40;14.10;;;;;;;13.68;100.00;94414.53;5021334;28;20164;-79
2023/05/16 04:13:17;;;;;;;22.73;15.10;;;;;;;13.67;100.00;94420.06;5021033;28;20418;-81
2023/05/16 04:15:42;;;;;;;20.50;13.23;;;;;;;13.51;100.00;94396.00;5023569;28;20171;-80
2023/05/16 04:18:08;;;;;;;24.63;14.33;;;;;;;13.56;100.00;94397.97;5022462;28;20177;-80
2023/05/16 04:20:35;;;;;;;23.60;13.70;;;;;;;13.62;100.00;94404.91;5032032;28;20203;-79
2023/05/16 04:23:00;;;;;;;21.52;15.20;;;;;;;13.68;100.00;94408.44;5021399;28;20459;-81
2023/05/16 04:25:25;;;;;;;25.60;14.57;;;;;;;13.64;100.00;94404.69;5008407;28;20271;-80
2023/05/16 04:27:51;;;;;;;21.37;13.20;;;;;;;13.67;100.00;94409.47;5012548;28;20678;-79
2023/05/16 04:30:17;;;;;;;21.33;14.13;;;;;;;13.65;100.00;94399.16;5012421;28;20152;-80
2023/05/16 04:32:42;;;;;;;24.52;17.02;;;;;;;13.49;100.00;94390.16;5016976;28;20440;-81
2023/05/16 04:35:08;;;;;;;19.73;14.33;;;;;;;13.46;100.00;94374.78;5023094;28;20199;-81
2023/05/16 04:37:34;;;;;;;24.10;15.00;;;;;;;13.66;100.00;94392.03;5021451;28;20179;-81
2023/05/16 04:40:00;;;;;;;20.90;14.27;;;;;;;13.80;100.00;94411.81;5005060;28;20549;-80
2023/05/16 04:42:25;;;;;;;26.03;17.07;;;;;;;13.82;100.00;94402.59;5014234;28;20417;-81
2023/05/16 04:44:51;;;;;;;29.73;18.77;;;;;;;13.78;100.00;94409.41;5022139;28;20514;-82
2023/05/16 04:47:17;;;;;;;23.17;15.10;;;;;;;13.76;100.00;94379.72;5022436;28;20204;-82
2023/05/16 04:49:42;;;;;;;27.47;16.07;;;;;;;13.94;100.00;94400.66;5023180;28;20196;-80
2023/05/16 04:52:07;;;;;;;29.40;15.57;;;;;;;13.91;100.00;94406.44;5014971;28;20172;-80
2023/05/16 04:54:33;;;;;;;24.43;15.90;;;;;;;13.73;100.00;94377.59;5012690;28;20179;-79
2023/05/16 04:56:58;;;;;;;33.77;20.13;;;;;;;13.82;100.00;94405.25;5012627;28;20418;-80
2023/05/16 04:59:24;;;;;;;39.47;17.43;;;;;;;13.87;100.00;94394.72;5023885;28;20180;-80
2023/05/16 05:01:49;;;;;;;23.70;15.73;;;;;;;13.89;100.00;94391.84;5022928;28;20180;-81
2023/05/16 05:04:16;;;;;;;40.90;17.93;;;;;;;14.07;99.68;94398.72;5022751;28;20269;-80
2023/05/16 05:06:42;;;;;;;43.63;17.47;;;;;;;13.94;99.61;94374.19;5022432;28;20164;-81
2023/05/16 05:09:07;;;;;;;19.17;11.97;;;;;;;14.04;98.37;94365.59;5022402;28;20182;-81
2023/05/16 05:11:33;;;;;;;21.30;12.53;;;;;;;14.31;97.00;94400.09;5023289;28;20451;-82
2023/05/16 05:13:58;;;;;;;19.67;11.33;;;;;;;14.32;96.94;94409.66;5013952;28;20169;-82
2023/05/16 05:16:24;;;;;;;17.97;10.40;;;;;;;14.39;95.74;94407.66;5010770;28;20211;-81
2023/05/16 05:18:49;;;;;;;14.02;9.52;;;;;;;14.31;94.47;94366.47;5017860;28;20234;-81
2023/05/16 05:21:14;;;;;;;19.37;11.30;;;;;;;14.57;94.56;94395.97;5017127;28;20418;-81
2023/05/16 05:23:40;;;;;;;21.00;11.53;;;;;;;14.71;92.42;94384.72;5019859;28;20462;-82
2023/05/16 05:26:05;;;;;;;16.20;10.53;;;;;;;14.77;91.74;94376.84;5020215;28;20476;-82
2023/05/16 05:28:31;;;;;;;16.90;9.83;;;;;;;15.08;90.01;94402.63;4996246;28;20818;-82
2023/05/16 05:30:56;;;;;;;16.33;11.90;;;;;;;14.99;90.15;94377.63;5010424;28;20477;-83
2023/05/16 05:33:28;;;;;;;17.77;10.87;;;;;;;14.88;90.23;94352.84;5030661;28;20402;-82
2023/05/16 05:35:54;;;;;;;17.77;11.10;;;;;;;15.01;89.95;94373.66;5030859;28;20465;-83
2023/05/16 05:38:19;;;;;;;20.50;10.68;;;;;;;15.10;89.61;94369.53;5017572;28;20986;-83
2023/05/16 05:40:45;;;;;;;19.25;10.27;;;;;;;15.23;89.37;94381.56;5019658;28;20501;-82
2023/05/16 05:43:10;;;;;;;16.67;10.25;;;;;;;15.17;89.54;94376.47;5028310;28;20448;-83
2023/05/16 05:45:36;;;;;;;21.60;10.90;;;;;;;15.29;88.90;94377.13;5019959;28;20486;-82
2023/05/16 05:48:02;;;;;;;19.63;10.53;;;;;;;15.29;88.82;94371.81;5025132;28;20423;-82
2023/05/16 05:50:27;;;;;;;20.40;10.73;;;;;;;15.21;88.96;94362.47;5023494;28;20425;-82
2023/05/16 05:52:54;;;;;;;15.45;9.82;;;;;;;15.34;88.57;94372.66;5019979;28;20449;-82
2023/05/16 05:55:20;;;;;;;17.15;10.13;;;;;;;15.32;88.95;94374.75;5024094;28;20788;-82
2023/05/16 05:57:45;;;;;;;14.13;9.33;;;;;;;15.39;88.64;94375.34;5025372;28;20409;-82
2023/05/16 06:00:11;;;;;;;11.02;8.07;;;;;;;15.36;88.44;94372.41;5025958;28;20247;-82
2023/05/16 06:02:37;;;;;;;14.00;9.23;;;;;;;15.35;88.21;94358.34;5025812;28;20614;-83
2023/05/16 06:05:02;;;;;;;16.73;9.73;;;;;;;15.36;88.26;94362.59;5033747;28;20420;-82
2023/05/16 06:07:28;;;;;;;17.67;9.93;;;;;;;15.51;88.15;94382.34;5033826;28;20816;-83
2023/05/16 06:09:53;;;;;;;13.43;8.98;;;;;;;15.32;87.88;94345.59;5035231;28;20159;-83
2023/05/16 06:12:18;;;;;;;14.30;9.45;;;;;;;15.41;87.93;94367.94;5015868;28;20454;-82
2023/05/16 06:14:45;;;;;;;15.75;9.20;;;;;;;15.27;87.94;94342.09;5034858;28;20567;-82
2023/05/16 06:17:11;;;;;;;14.10;8.60;;;;;;;15.51;88.09;94382.34;5034719;28;20202;-82
2023/05/16 06:19:36;;;;;;;21.40;9.35;;;;;;;15.36;88.08;94356.50;5034470;28;20776;-82
2023/05/16 06:22:01;;;;;;;19.30;10.33;;;;;;;15.52;88.38;94374.13;5023886;28;20409;-82
2023/05/16 06:24:28;;;;;;;11.63;7.90;;;;;;;15.33;88.31;94349.84;5025111;28;20196;-81
2023/05/16 06:26:54;;;;;;;13.80;9.10;;;;;;;15.50;87.86;94378.88;5026384;28;20448;-82
2023/05/16 06:29:19;;;;;;;14.73;8.57;;;;;;;15.35;87.29;94349.59;5026917;28;20496;-81
2023/05/16 06:31:46;;;;;;;15.13;7.85;;;;;;;15.39;87.70;94362.06;5034521;28;20164;-82
2023/05/16 06:34:11;;;;;;;13.15;7.45;;;;;;;15.30;88.07;94352.22;5025451;28;20172;-81
2023/05/16 06:36:37;;;;;;;11.85;7.30;;;;;;;15.47;87.69;94371.44;5032715;28;20226;-81
2023/05/16 06:39:03;;;;;;;19.63;7.37;;;;;;;15.24;87.69;94332.78;5021055;28;20180;-81
2023/05/16 06:41:29;;;;;;;12.00;8.10;;;;;;;15.36;87.40;94338.72;5007687;28;20813;-82
2023/05/16 06:43:54;;;;;;;14.67;8.00;;;;;;;15.54;87.19;94363.31;5013368;28;20446;-81
2023/05/16 06:46:20;;;;;;;12.80;8.35;;;;;;;15.34;87.26;94329.41;4976614;28;20954;-81
2023/05/16 06:48:45;;;;;;;14.57;7.28;;;;;;;15.58;86.74;94362.53;4994968;28;20635;-81
2023/05/16 06:51:10;;;;;;;12.73;7.17;;;;;;;15.62;86.02;94345.06;4976540;28;20416;-81
2023/05/16 06:53:36;;;;;;;9.43;6.47;;;;;;;15.71;85.62;94348.03;4994423;28;20169;-81
2023/05/16 06:56:01;;;;;;;11.50;6.50;;;;;;;15.61;85.09;94319.59;5003980;28;20651;-82
2023/05/16 06:58:27;;;;;;;16.10;6.67;;;;;;;15.73;85.19;94328.16;5023419;28;20181;-81
2023/05/16 07:00:52;;;;;;;10.93;6.00;;;;;;;15.78;85.20;94325.53;5031449;28;20168;-82
2023/05/16 07:03:18;;;;;;;10.43;6.67;;;;;;;15.76;84.93;94317.03;5021294;28;20224;-81
2023/05/16 07:05:43;;;;;;;11.00;6.23;;;;;;;15.77;84.81;94309.88;5015985;28;20659;-81
2023/05/16 07:08:11;;;;;;;11.40;6.13;;;;;;;15.73;84.60;94316.75;5026168;28;20169;-81
2023/05/16 07:10:36;;;;;;;12.03;6.97;;;;;;;15.85;84.85;94317.34;5019469;28;20176;-81
2023/05/16 07:13:01;;;;;;;10.83;6.20;;;;;;;15.85;84.49;94304.06;5026899;28;20673;-82
2023/05/16 07:15:27;;;;;;;12.80;6.30;;;;;;;15.90;84.25;94305.97;5031395;28;20246;-81
2023/05/16 07:17:52;;;;;;;12.00;5.90;;;;;;;16.00;84.36;94322.72;5033677;28;20167;-81
2023/05/16 07:20:18;;;;;;;11.02;5.70;;;;;;;15.98;83.63;94305.47;5033323;28;20207;-81
2023/05/16 07:22:43;;;;;;;8.40;5.53;;;;;;;16.02;82.79;94283.47;5033421;28;20167;-81
2023/05/16 07:25:11;;;;;;;5.87;5.23;;;;;;;15.97;81.92;94258.75;5033145;28;20286;-82
2023/05/16 07:27:40;;;;;;;8.33;5.00;;;;;;;16.26;81.75;94298.97;5033247;28;20191;-81
2023/05/16 07:30:08;;;;;;;6.93;5.27;;;;;;;16.28;82.15;94292.34;4995755;28;20655;-80
2023/05/16 07:32:34;;;;;;;7.20;5.35;;;;;;;16.36;82.01;94310.44;5022126;28;20184;-79
2023/05/16 07:34:59;;;;;;;14.10;5.97;;;;;;;16.34;81.68;94299.28;5017233;28;20595;-80
2023/05/16 07:37:25;;;;;;;13.05;5.38;;;;;;;16.40;81.83;94326.66;5024230;28;20180;-80
2023/05/16 07:39:50;;;;;;;9.27;5.88;;;;;;;16.40;82.16;94330.13;5024754;28;20187;-81
2023/05/16 07:42:16;;;;;;;9.10;5.43;;;;;;;16.43;81.66;94334.13;5032974;28;20160;-81
2023/05/16 07:44:41;;;;;;;9.53;5.77;;;;;;;16.41;81.49;94352.97;5032874;28;20202;-80
2023/05/16 07:47:06;;;;;;;7.88;6.05;;;;;;;16.40;81.35;94345.25;5032833;28;20160;-80
2023/05/16 07:49:32;;;;;;;9.60;5.50;;;;;;;16.32;80.88;94308.56;5032630;28;20207;-83
2023/05/16 07:51:57;;;;;;;12.77;5.40;;;;;;;16.26;80.64;94305.06;4996869;28;20182;-79
2023/05/16 07:54:23;;;;;;;5.57;4.45;;;;;;;16.34;80.42;94327.69;5020898;28;20184;-82
2023/05/16 07:56:48;;;;;;;10.88;6.30;;;;;;;16.51;80.49;94344.25;5022417;28;20169;-81
2023/05/16 07:59:14;;;;;;;17.20;5.70;;;;;;;16.58;80.08;94324.34;5015452;28;20665;-79
2023/05/16 08:01:40;;;;;;;8.98;5.18;;;;;;;16.58;79.77;94307.59;5020382;28;20180;-80
2023/05/16 08:04:05;;;;;;;9.02;5.53;;;;;;;16.59;79.51;94303.88;5018134;28;20762;-80
2023/05/16 08:06:31;;;;;;;11.83;5.23;;;;;;;16.67;79.58;94300.75;5026176;28;20271;-81
2023/05/16 08:08:56;;;;;;;11.77;5.85;;;;;;;16.66;79.84;94296.50;5023756;28;20176;-81
2023/05/16 08:11:22;;;;;;;10.45;6.10;;;;;;;16.74;79.81;94295.16;5022293;28;20268;-81
2023/05/16 08:13:48;;;;;;;11.65;5.90;;;;;;;16.72;79.59;94284.00;5022299;28;20183;-81
2023/05/16 08:16:13;;;;;;;7.50;5.45;;;;;;;16.58;79.97;94254.44;5029757;28;20183;-81
2023/05/16 08:18:39;;;;;;;12.45;6.15;;;;;;;16.88;79.62;94275.78;5026838;28;20175;-81
2023/05/16 08:21:04;;;;;;;10.55;5.68;;;;;;;16.90;79.00;94281.66;5012937;28;20174;-80
2023/05/16 08:23:30;;;;;;;13.10;5.95;;;;;;;16.85;79.26;94300.25;5013593;28;20182;-80
2023/05/16 08:25:56;;;;;;;13.75;6.53;;;;;;;16.84;79.45;94295.19;5016042;28;20210;-80
2023/05/16 08:28:21;;;;;;;8.23;5.43;;;;;;;16.63;79.40;94256.34;5021872;28;20180;-83
2023/05/16 08:30:46;;;;;;;12.88;6.22;;;;;;;16.88;79.05;94294.41;5023170;28;20187;-84
2023/05/16 08:33:12;;;;;;;7.88;5.53;;;;;;;16.82;78.95;94265.41;5019905;28;20222;-84
2023/05/16 08:35:42;;;;;;;12.05;5.50;;;;;;;16.86;78.72;94287.75;5013087;28;20592;-79
2023/05/16 08:38:08;;;;;;;11.05;4.97;;;;;;;16.85;78.93;94276.34;5016558;28;20264;-84
2023/05/16 08:40:33;;;;;;;7.78;5.28;;;;;;;16.83;79.05;94280.31;4990048;28;20263;-79
2023/05/16 08:42:59;;;;;;;7.78;5.25;;;;;;;17.01;78.81;94292.28;5015568;28;20184;-80
2023/05/16 08:45:25;;;;;;;8.90;4.88;;;;;;;17.09;78.08;94302.41;5019125;28;20207;-79
2023/05/16 08:47:53;;;;;;;12.25;5.35;;;;;;;17.09;78.17;94287.25;5004654;28;20172;-80
2023/05/16 08:50:20;;;;;;;9.95;5.47;;;;;;;17.12;77.93;94270.78;5015075;28;20172;-80
2023/05/16 08:52:47;;;;;;;8.05;4.38;;;;;;;17.34;76.70;94302.44;5016963;28;20179;-79
2023/05/16 08:55:12;;;;;;;9.38;4.95;;;;;;;17.42;76.08;94269.97;5022528;28;20176;-82
2023/05/16 08:57:39;;;;;;;6.40;4.68;;;;;;;17.58;76.37;94289.38;5005659;28;20242;-80
2023/05/16 09:00:11;;;;;;;13.10;4.93;;;;;;;17.74;75.80;94293.63;5025038;28;20192;-80
2023/05/16 09:02:41;;;;;;;9.50;4.90;;;;;;;17.88;75.48;94294.69;5019064;28;20263;-80
2023/05/16 09:05:12;;;;;;;13.85;5.63;;;;;;;17.86;74.48;94293.34;5003936;28;20208;-78
2023/05/16 09:07:37;;;;;;;12.18;4.95;;;;;;;17.91;75.06;94293.34;5023191;28;20180;-80
2023/05/16 09:10:05;;;;;;;9.90;5.70;;;;;;;17.80;74.67;94268.63;5002580;28;20184;-79
2023/05/16 09:12:31;;;;;;;11.30;5.50;;;;;;;17.71;75.13;94262.25;5016001;28;20176;-79
2023/05/16 09:14:57;;;;;;;12.50;5.97;;;;;;;17.92;75.06;94277.09;5019936;28;20183;-79
2023/05/16 09:17:22;;;;;;;10.43;4.75;;;;;;;17.96;75.65;94288.00;5020430;28;20173;-79
2023/05/16 09:19:51;;;;;;;10.30;5.07;;;;;;;18.03;75.12;94297.31;5019245;28;20624;-79
2023/05/16 09:22:17;;;;;;;10.40;6.10;;;;;;;17.94;74.47;94279.47;5008365;28;20200;-79
2023/05/16 09:24:44;;;;;;;12.02;4.85;;;;;;;18.06;74.15;94302.09;5013294;28;20240;-79
2023/05/16 09:27:14;;;;;;;10.45;5.05;;;;;;;18.08;74.34;94297.28;5014454;28;20184;-79
2023/05/16 09:29:42;;;;;;;8.15;4.72;;;;;;;17.98;73.68;94294.66;5024897;28;20562;-79
2023/05/16 09:32:15;;;;;;;6.35;4.72;;;;;;;18.05;74.40;94311.16;5035629;28;20251;-80
2023/05/16 09:34:47;;;;;;;8.27;4.82;;;;;;;17.94;74.15;94280.28;5023186;28;20180;-81
2023/05/16 09:37:13;;;;;;;9.93;4.80;;;;;;;18.14;74.22;94282.09;5017054;28;20263;-80
2023/05/16 09:39:46;;;;;;;8.50;5.28;;;;;;;18.22;73.76;94275.41;5015464;28;20251;-80
2023/05/16 09:42:13;;;;;;;8.80;4.72;;;;;;;18.24;73.17;94278.59;5015566;28;20168;-80
2023/05/16 09:44:39;;;;;;;7.82;4.65;;;;;;;18.14;72.88;94255.47;5015239;28;20235;-80
2023/05/16 09:47:05;;;;;;;7.95;4.50;;;;;;;17.97;73.45;94244.34;5003168;28;20220;-80
2023/05/16 09:49:30;;;;;;;9.68;5.25;;;;;;;18.14;73.43;94270.66;4994233;28;20606;-80
2023/05/16 09:52:00;;;;;;;10.52;5.60;;;;;;;18.27;73.82;94286.84;4993936;28;20180;-80
2023/05/16 09:54:32;;;;;;;7.63;5.30;;;;;;;18.33;73.51;94283.09;4994284;28;20999;-80
2023/05/16 09:56:59;;;;;;;10.13;5.47;;;;;;;18.09;73.70;94247.47;4997651;28;20242;-80
2023/05/16 09:59:24;;;;;;;9.05;5.68;;;;;;;18.35;73.83;94278.28;5023347;28;20200;-80
2023/05/16 10:01:54;;;;;;;10.30;5.20;;;;;;;18.23;73.67;94256.50;5022852;28;21301;-80
2023/05/16 10:04:20;;;;;;;6.93;4.65;;;;;;;18.41;72.31;94269.22;5025164;28;20230;-81
2023/05/16 10:06:49;;;;;;;11.50;4.82;;;;;;;18.53;72.56;94279.53;5025647;28;20203;-82
2023/05/16 10:09:15;;;;;;;12.32;4.40;;;;;;;18.66;71.99;94275.50;5017289;28;20247;-80
2023/05/16 10:11:42;;;;;;;12.35;5.03;;;;;;;18.68;72.25;94284.81;5014725;28;20172;-81
2023/05/16 10:14:10;;;;;;;11.55;5.43;;;;;;;18.72;72.00;94279.72;5025344;28;20189;-80
2023/05/16 10:16:36;;;;;;;13.02;5.90;;;;;;;18.68;71.52;94268.03;5026778;28;20173;-81
2023/05/16 10:19:02;;;;;;;14.85;5.05;;;;;;;18.79;71.57;94282.88;5012759;28;20673;-80
2023/05/16 10:21:30;;;;;;;17.10;5.22;;;;;;;18.74;72.02;94288.25;5012846;28;20176;-80
2023/05/16 10:23:58;;;;;;;11.50;6.18;;;;;;;18.57;71.89;94274.50;5012516;28;20192;-80
2023/05/16 10:26:25;;;;;;;11.52;5.35;;;;;;;18.56;72.08;94265.66;5012570;28;20183;-80
2023/05/16 10:28:51;;;;;;;9.18;5.07;;;;;;;18.59;72.00;94291.81;5015671;28;20176;-80
2023/05/16 10:31:17;;;;;;;9.13;5.13;;;;;;;18.47;71.99;94286.75;5010687;28;20227;-80
2023/05/16 10:33:43;;;;;;;11.55;5.43;;;;;;;18.38;72.25;94264.41;5020609;28;20526;-80
2023/05/16 10:36:10;;;;;;;14.13;5.53;;;;;;;18.27;73.21;94246.06;5015944;28;20180;-80
2023/05/16 10:38:37;;;;;;;15.40;5.30;;;;;;;18.25;73.93;94242.91;5020134;28;20171;-81
2023/05/16 10:41:03;;;;;;;7.97;5.97;;;;;;;18.25;74.87;94248.22;5028443;28;20511;-80
2023/05/16 10:43:29;;;;;;;9.52;6.57;;;;;;;18.23;75.23;94247.69;5030514;28;20653;-80
2023/05/16 10:46:06;;;;;;;9.10;5.28;;;;;;;18.22;75.93;94225.59;5028453;28;20242;-81
2023/05/16 10:48:40;;;;;;;13.55;5.63;;;;;;;18.31;75.53;94228.47;5011566;28;20225;-81
2023/05/16 10:51:21;;;;;;;15.73;6.13;;;;;;;18.37;76.00;94225.50;4993668;28;20570;-81
2023/05/16 10:53:46;;;;;;;8.00;5.20;;;;;;;18.45;75.51;94224.94;5023890;28;20180;-80
2023/05/16 10:56:12;;;;;;;8.52;5.35;;;;;;;18.39;74.60;94214.56;5025289;28;20712;-80
2023/05/16 10:58:37;;;;;;;7.90;5.18;;;;;;;18.51;74.65;94223.03;5025255;28;20176;-80
2023/05/16 11:01:18;;;;;;;15.25;6.13;;;;;;;18.52;75.16;94223.81;5033690;28;20559;-80
2023/05/16 11:03:55;;;;;;;13.90;5.88;;;;;;;18.59;74.50;94241.16;5022734;28;20278;-78
2023/05/16 11:06:24;;;;;;;10.93;5.90;;;;;;;18.58;74.71;94249.44;5024566;28;20176;-81
2023/05/16 11:09:09;;;;;;;14.13;5.82;;;;;;;18.59;74.47;94269.69;5026720;28;20199;-81
2023/05/16 11:11:42;;;;;;;12.55;6.10;;;;;;;18.58;74.47;94284.09;5018861;28;20685;-80
2023/05/16 11:14:08;;;;;;;15.43;6.22;;;;;;;18.58;75.11;94289.41;5027961;28;20246;-80
2023/05/16 11:16:35;;;;;;;23.65;7.30;;;;;;;18.55;75.92;94298.72;5021454;28;20259;-81
2023/05/16 11:19:07;;;;;;;13.18;6.35;;;;;;;18.46;76.43;94287.84;5026438;28;20208;-81
2023/05/16 11:22:06;;;;;;;12.88;7.00;;;;;;;18.52;76.93;94295.78;4993993;28;20220;-79